Terminal Aerodrome Forecast
Issued by NWS Northern Indiana

Home | Current Version | Previous Version | Graphics & Text | Print | Product List | Glossary On
Versions: 1 2 3 4 5 6 7 8 9 10 11 12 13 14 15 16
000
FTUS43 KIWX 251738
TAFFWA
TAF
KFWA 251738Z 2518/2618 30009G16KT P6SM FEW030 BKN045
     FM260200 27002KT P6SM BKN050=

USA.gov is the U.S. government's official web portal to all federal, state and local government web resources and services.